createdAt,value
2023-05-25T00:02:27.038Z,9.90
2023-05-25T00:08:29.841Z,9.80
2023-05-25T00:14:31.709Z,9.80
2023-05-25T00:20:33.508Z,9.80
2023-05-25T00:26:36.144Z,9.80
2023-05-25T00:32:38.168Z,9.90
2023-05-25T00:38:40.010Z,9.80
2023-05-25T00:44:42.653Z,9.80
2023-05-25T00:50:45.796Z,9.70
2023-05-25T00:56:57.537Z,9.60
2023-05-25T01:03:01.075Z,9.50
2023-05-25T01:09:05.575Z,9.30
2023-05-25T01:15:09.181Z,9.30
2023-05-25T01:21:37.932Z,9.20
2023-05-25T01:28:00.191Z,9.10
2023-05-25T01:34:02.715Z,9.00
2023-05-25T01:40:08.574Z,9.20
2023-05-25T01:46:36.995Z,9.40
2023-05-25T01:52:44.289Z,9.30
2023-05-25T01:58:48.436Z,9.20
2023-05-25T02:04:50.858Z,9.30
2023-05-25T02:10:52.763Z,9.30
2023-05-25T02:16:54.571Z,9.30
2023-05-25T02:22:56.408Z,9.30
2023-05-25T02:28:58.242Z,9.20
2023-05-25T02:35:00.069Z,9.10
2023-05-25T02:41:02.185Z,9.10
2023-05-25T02:47:04.169Z,9.20
2023-05-25T02:53:06.262Z,9.10
2023-05-25T02:59:08.327Z,9.20
2023-05-25T03:05:11.363Z,9.00
2023-05-25T03:11:13.260Z,9.10
2023-05-25T03:17:15.186Z,9.10
2023-05-25T03:23:17.078Z,9.20
2023-05-25T03:29:18.867Z,9.30
2023-05-25T03:35:20.693Z,9.30
2023-05-25T03:41:22.665Z,9.30
2023-05-25T03:47:24.557Z,9.30
2023-05-25T03:53:26.473Z,9.50
2023-05-25T03:59:28.273Z,9.50
2023-05-25T04:05:30.185Z,9.50
2023-05-25T04:11:32.048Z,9.40
2023-05-25T04:17:35.394Z,9.40
2023-05-25T04:23:38.669Z,9.30
2023-05-25T04:29:41.702Z,9.50
2023-05-25T04:35:44.056Z,9.50
2023-05-25T04:41:48.376Z,9.40
2023-05-25T04:47:50.167Z,9.60
2023-05-25T04:53:52.132Z,9.70
2023-05-25T04:59:54.177Z,9.80
2023-05-25T05:05:56.976Z,9.70
2023-05-25T05:11:58.761Z,9.80
2023-05-25T05:18:00.696Z,9.80
2023-05-25T05:24:02.542Z,9.90
2023-05-25T05:30:04.816Z,10.00
2023-05-25T05:36:06.789Z,9.90
2023-05-25T05:42:09.588Z,10.00
2023-05-25T05:48:11.540Z,10.00
2023-05-25T05:54:13.348Z,9.80
2023-05-25T06:00:16.294Z,9.80
2023-05-25T06:06:18.393Z,9.90
2023-05-25T06:12:20.279Z,9.80
2023-05-25T06:18:22.132Z,9.90
2023-05-25T06:24:24.011Z,10.00
2023-05-25T06:30:25.913Z,10.20
2023-05-25T06:36:27.775Z,10.40
2023-05-25T06:42:29.664Z,10.60
2023-05-25T06:48:31.664Z,10.80
2023-05-25T06:54:33.524Z,10.00
2023-05-25T07:00:35.295Z,9.80
2023-05-25T07:06:37.302Z,10.10
2023-05-25T07:12:39.358Z,10.20
2023-05-25T07:18:42.197Z,10.30
2023-05-25T07:24:44.074Z,10.40
2023-05-25T07:30:46.079Z,10.60
2023-05-25T07:36:48.062Z,10.50
2023-05-25T07:42:49.905Z,10.60
2023-05-25T07:48:52.162Z,10.50
2023-05-25T07:54:54.056Z,10.50
2023-05-25T08:00:56.392Z,11.20
2023-05-25T08:06:58.260Z,11.10
2023-05-25T08:13:00.166Z,11.40
2023-05-25T08:19:02.040Z,11.40
2023-05-25T08:25:05.230Z,11.60
2023-05-25T08:31:08.593Z,11.40
2023-05-25T08:37:10.618Z,11.20
2023-05-25T08:43:12.616Z,11.40
2023-05-25T08:49:15.680Z,11.60
2023-05-25T08:55:19.769Z,11.80
2023-05-25T09:01:23.810Z,11.70
2023-05-25T09:07:26.941Z,12.00
2023-05-25T09:13:29.213Z,11.60
2023-05-25T09:19:31.155Z,11.90
2023-05-25T09:25:33.817Z,11.90
2023-05-25T09:31:36.313Z,12.10
2023-05-25T09:37:39.054Z,12.00
2023-05-25T09:43:46.807Z,12.10
2023-05-25T09:49:57.671Z,12.20
2023-05-25T09:56:01.964Z,12.40
2023-05-25T10:02:06.873Z,12.40
2023-05-25T10:08:10.588Z,12.30
2023-05-25T10:14:17.636Z,12.50
2023-05-25T10:20:24.963Z,12.70
2023-05-25T10:26:33.616Z,13.00
2023-05-25T10:32:37.718Z,13.10
2023-05-25T10:38:40.743Z,13.20
2023-05-25T10:44:43.494Z,12.90
2023-05-25T10:50:50.853Z,13.00
2023-05-25T10:57:31.867Z,12.70
2023-05-25T11:03:56.740Z,12.70
2023-05-25T11:09:59.425Z,12.40
2023-05-25T11:16:20.790Z,12.80
2023-05-25T11:22:42.892Z,13.10
2023-05-25T11:28:47.059Z,13.20
2023-05-25T11:34:49.855Z,13.40
2023-05-25T11:40:51.876Z,13.70
2023-05-25T11:46:57.613Z,13.80
2023-05-25T11:52:59.726Z,13.60
2023-05-25T11:59:01.657Z,13.60
2023-05-25T12:05:03.857Z,13.40
2023-05-25T12:11:05.964Z,13.70
2023-05-25T12:17:07.985Z,13.60
2023-05-25T12:23:10.283Z,14.10
2023-05-25T12:29:12.170Z,14.50
2023-05-25T12:35:14.051Z,14.20
2023-05-25T12:41:17.614Z,14.20
2023-05-25T12:47:23.070Z,14.20
2023-05-25T12:53:25.420Z,14.50
2023-05-25T12:59:27.305Z,15.10
2023-05-25T13:05:34.277Z,15.20
2023-05-25T13:11:36.209Z,14.80
2023-05-25T13:17:38.133Z,14.60
2023-05-25T13:23:40.251Z,14.60
2023-05-25T13:29:42.088Z,14.40
2023-05-25T13:35:58.358Z,14.50
2023-05-25T13:42:02.897Z,14.40
2023-05-25T13:48:05.180Z,14.30
2023-05-25T13:54:07.289Z,14.50
2023-05-25T14:00:09.526Z,14.70
2023-05-25T14:06:11.843Z,14.70
2023-05-25T14:12:17.074Z,14.90
2023-05-25T14:18:19.134Z,15.50
2023-05-25T14:24:21.209Z,15.50
2023-05-25T14:30:23.488Z,15.50
2023-05-25T14:36:25.459Z,16.10
2023-05-25T14:42:27.543Z,16.30
2023-05-25T14:48:29.746Z,16.30
2023-05-25T14:54:31.712Z,16.60
2023-05-25T15:00:33.970Z,16.60
2023-05-25T15:06:36.949Z,16.70
2023-05-25T15:12:39.219Z,16.50
2023-05-25T15:18:41.081Z,15.50
2023-05-25T15:24:43.056Z,15.10
2023-05-25T15:30:45.539Z,15.00
2023-05-25T15:36:47.441Z,15.30
2023-05-25T15:42:50.853Z,15.90
2023-05-25T15:48:53.108Z,16.60
2023-05-25T15:54:54.964Z,16.90
2023-05-25T16:00:56.881Z,17.20
2023-05-25T16:07:00.638Z,17.20
2023-05-25T16:13:03.849Z,17.50
2023-05-25T16:19:05.854Z,17.70
2023-05-25T16:25:08.237Z,17.90
2023-05-25T16:31:12.226Z,18.10
2023-05-25T16:37:14.103Z,17.80
2023-05-25T16:43:15.936Z,17.20
2023-05-25T16:49:17.877Z,17.00
2023-05-25T16:55:19.765Z,16.00
2023-05-25T17:01:22.253Z,15.80
2023-05-25T17:07:25.265Z,16.50
2023-05-25T17:13:27.812Z,16.60
2023-05-25T17:19:29.730Z,17.00
2023-05-25T17:25:33.368Z,17.40
2023-05-25T17:31:36.332Z,17.70
2023-05-25T17:37:38.408Z,17.70
2023-05-25T17:43:40.531Z,17.70
2023-05-25T17:49:42.537Z,17.90
2023-05-25T17:55:44.641Z,18.00
2023-05-25T18:01:47.559Z,17.80
2023-05-25T18:07:49.517Z,17.40
2023-05-25T18:13:52.446Z,16.40
2023-05-25T18:19:54.578Z,15.90
2023-05-25T18:25:56.534Z,15.40
2023-05-25T18:31:58.530Z,14.90
2023-05-25T18:38:00.402Z,14.70
2023-05-25T18:44:02.319Z,14.50
2023-05-25T18:50:04.548Z,14.30
2023-05-25T18:56:06.636Z,14.20
2023-05-25T19:02:08.651Z,14.10
2023-05-25T19:08:10.708Z,13.80
2023-05-25T19:14:12.640Z,13.70
2023-05-25T19:20:16.805Z,13.40
2023-05-25T19:26:19.162Z,13.20
2023-05-25T19:32:22.127Z,13.20
2023-05-25T19:38:26.568Z,13.10
2023-05-25T19:44:31.719Z,13.10
2023-05-25T19:50:36.152Z,12.90
2023-05-25T19:56:38.004Z,12.80
2023-05-25T20:02:40.075Z,12.80
2023-05-25T20:08:42.018Z,13.00
2023-05-25T20:14:44.071Z,12.80
2023-05-25T20:20:46.104Z,12.70
2023-05-25T20:26:48.148Z,12.30
2023-05-25T20:32:49.924Z,12.20
2023-05-25T20:38:51.777Z,12.10
2023-05-25T20:44:53.677Z,12.10
2023-05-25T20:50:55.684Z,11.80
2023-05-25T20:56:57.569Z,11.80
2023-05-25T21:02:59.441Z,11.70
2023-05-25T21:09:01.674Z,11.80
2023-05-25T21:15:03.649Z,11.50
2023-05-25T21:21:05.849Z,11.50
2023-05-25T21:27:07.813Z,11.50
2023-05-25T21:33:09.734Z,11.40
2023-05-25T21:39:11.628Z,11.30
2023-05-25T21:45:13.421Z,11.10
2023-05-25T21:51:16.857Z,11.20
2023-05-25T21:57:18.728Z,11.10
2023-05-25T22:03:21.257Z,11.10
2023-05-25T22:09:23.516Z,10.80
2023-05-25T22:15:25.548Z,11.00
2023-05-25T22:21:27.449Z,11.10
2023-05-25T22:27:29.302Z,10.90
2023-05-25T22:33:31.254Z,10.80
2023-05-25T22:39:33.099Z,10.80
2023-05-25T22:45:34.963Z,10.70
2023-05-25T22:51:36.989Z,10.50
2023-05-25T22:57:39.408Z,10.60
2023-05-25T23:03:41.898Z,10.60
2023-05-25T23:09:43.866Z,10.50
2023-05-25T23:15:47.485Z,10.20
2023-05-25T23:21:49.909Z,10.10
2023-05-25T23:27:51.792Z,10.10
2023-05-25T23:33:53.631Z,10.00
2023-05-25T23:39:55.557Z,10.00
2023-05-25T23:45:57.486Z,10.00
2023-05-25T23:51:59.365Z,9.90
2023-05-25T23:58:01.256Z,10.10
